sensor_id;sensor_type;location;lat;lon;timestamp;temperature;humidity
13835;DHT22;6988;52.614;13.500;2022-07-21T00:01:00;23.40;99.90
13835;DHT22;6988;52.614;13.500;2022-07-21T00:05:52;23.40;99.90
13835;DHT22;6988;52.614;13.500;2022-07-21T00:10:45;23.50;99.90
13835;DHT22;6988;52.614;13.500;2022-07-21T00:15:38;23.30;99.90
13835;DHT22;6988;52.614;13.500;2022-07-21T00:20:30;23.00;99.90
13835;DHT22;6988;52.614;13.500;2022-07-21T00:25:22;22.90;99.90
13835;DHT22;6988;52.614;13.500;2022-07-21T00:30:16;22.80;99.90
13835;DHT22;6988;52.614;13.500;2022-07-21T00:35:09;22.70;99.90
13835;DHT22;6988;52.614;13.500;2022-07-21T00:40:03;22.80;99.90
13835;DHT22;6988;52.614;13.500;2022-07-21T00:44:56;22.70;99.90
13835;DHT22;6988;52.614;13.500;2022-07-21T00:49:50;22.60;99.90
13835;DHT22;6988;52.614;13.500;2022-07-21T00:54:43;22.50;99.90
13835;DHT22;6988;52.614;13.500;2022-07-21T00:59:35;22.60;99.90
13835;DHT22;6988;52.614;13.500;2022-07-21T01:04:27;22.70;99.90
13835;DHT22;6988;52.614;13.500;2022-07-21T01:09:20;22.50;99.90
13835;DHT22;6988;52.614;13.500;2022-07-21T01:14:12;22.30;99.90
13835;DHT22;6988;52.614;13.500;2022-07-21T01:19:05;22.20;99.90
13835;DHT22;6988;52.614;13.500;2022-07-21T01:24:03;22.10;99.90
13835;DHT22;6988;52.614;13.500;2022-07-21T01:28:57;22.10;99.90
13835;DHT22;6988;52.614;13.500;2022-07-21T01:33:49;22.10;99.90
13835;DHT22;6988;52.614;13.500;2022-07-21T01:38:41;22.00;99.90
13835;DHT22;6988;52.614;13.500;2022-07-21T01:43:52;22.00;99.90
13835;DHT22;6988;52.614;13.500;2022-07-21T01:48:44;22.10;99.90
13835;DHT22;6988;52.614;13.500;2022-07-21T01:53:36;22.30;99.90
13835;DHT22;6988;52.614;13.500;2022-07-21T01:58:29;22.20;99.90
13835;DHT22;6988;52.614;13.500;2022-07-21T02:03:22;22.00;99.90
13835;DHT22;6988;52.614;13.500;2022-07-21T02:08:15;22.00;99.90
13835;DHT22;6988;52.614;13.500;2022-07-21T02:13:06;22.10;99.90
13835;DHT22;6988;52.614;13.500;2022-07-21T02:17:58;22.20;99.90
13835;DHT22;6988;52.614;13.500;2022-07-21T02:22:52;22.20;99.90
13835;DHT22;6988;52.614;13.500;2022-07-21T02:27:45;22.00;99.90
13835;DHT22;6988;52.614;13.500;2022-07-21T02:32:37;21.90;99.90
13835;DHT22;6988;52.614;13.500;2022-07-21T02:37:29;21.80;99.90
13835;DHT22;6988;52.614;13.500;2022-07-21T02:42:22;21.80;99.90
13835;DHT22;6988;52.614;13.500;2022-07-21T02:47:14;21.70;99.90
13835;DHT22;6988;52.614;13.500;2022-07-21T02:52:06;21.70;99.90
13835;DHT22;6988;52.614;13.500;2022-07-21T02:56:58;21.60;99.90
13835;DHT22;6988;52.614;13.500;2022-07-21T03:01:51;21.60;99.90
13835;DHT22;6988;52.614;13.500;2022-07-21T03:06:43;21.50;99.90
13835;DHT22;6988;52.614;13.500;2022-07-21T03:11:35;21.60;99.90
13835;DHT22;6988;52.614;13.500;2022-07-21T03:16:27;21.60;99.90
13835;DHT22;6988;52.614;13.500;2022-07-21T03:21:20;21.60;99.90
13835;DHT22;6988;52.614;13.500;2022-07-21T03:26:12;21.50;99.90
13835;DHT22;6988;52.614;13.500;2022-07-21T03:31:04;21.50;99.90
13835;DHT22;6988;52.614;13.500;2022-07-21T03:35:56;21.50;99.90
13835;DHT22;6988;52.614;13.500;2022-07-21T03:40:51;21.60;99.90
13835;DHT22;6988;52.614;13.500;2022-07-21T03:45:43;21.80;99.90
13835;DHT22;6988;52.614;13.500;2022-07-21T03:50:38;21.90;99.90
13835;DHT22;6988;52.614;13.500;2022-07-21T03:55:32;21.90;99.90
13835;DHT22;6988;52.614;13.500;2022-07-21T04:00:27;21.90;99.90
13835;DHT22;6988;52.614;13.500;2022-07-21T04:05:21;21.80;99.90
13835;DHT22;6988;52.614;13.500;2022-07-21T04:10:15;21.80;99.90
13835;DHT22;6988;52.614;13.500;2022-07-21T04:15:09;21.70;99.90
13835;DHT22;6988;52.614;13.500;2022-07-21T04:20:03;21.70;99.90
13835;DHT22;6988;52.614;13.500;2022-07-21T04:24:57;21.80;99.90
13835;DHT22;6988;52.614;13.500;2022-07-21T04:29:50;22.00;99.90
13835;DHT22;6988;52.614;13.500;2022-07-21T04:34:42;22.20;99.90
13835;DHT22;6988;52.614;13.500;2022-07-21T04:39:35;22.30;99.90
13835;DHT22;6988;52.614;13.500;2022-07-21T04:44:27;22.50;99.90
13835;DHT22;6988;52.614;13.500;2022-07-21T04:49:19;22.70;99.90
13835;DHT22;6988;52.614;13.500;2022-07-21T04:54:10;23.00;99.90
13835;DHT22;6988;52.614;13.500;2022-07-21T04:59:05;23.20;99.90
13835;DHT22;6988;52.614;13.500;2022-07-21T05:03:57;23.50;99.90
13835;DHT22;6988;52.614;13.500;2022-07-21T05:08:49;23.90;99.90
13835;DHT22;6988;52.614;13.500;2022-07-21T05:13:40;23.90;99.90
13835;DHT22;6988;52.614;13.500;2022-07-21T05:18:33;24.00;99.90
13835;DHT22;6988;52.614;13.500;2022-07-21T05:23:25;24.00;99.90
13835;DHT22;6988;52.614;13.500;2022-07-21T05:28:17;24.00;99.90
13835;DHT22;6988;52.614;13.500;2022-07-21T05:33:09;24.00;99.90
13835;DHT22;6988;52.614;13.500;2022-07-21T05:38:02;23.90;99.90
13835;DHT22;6988;52.614;13.500;2022-07-21T05:42:54;23.80;99.90
13835;DHT22;6988;52.614;13.500;2022-07-21T05:47:46;23.90;99.90
13835;DHT22;6988;52.614;13.500;2022-07-21T05:52:38;23.80;99.90
13835;DHT22;6988;52.614;13.500;2022-07-21T05:57:31;23.90;99.90
13835;DHT22;6988;52.614;13.500;2022-07-21T06:02:23;23.90;99.90
13835;DHT22;6988;52.614;13.500;2022-07-21T06:07:14;23.90;99.90
13835;DHT22;6988;52.614;13.500;2022-07-21T06:12:06;23.90;99.90
13835;DHT22;6988;52.614;13.500;2022-07-21T06:16:59;24.00;99.90
13835;DHT22;6988;52.614;13.500;2022-07-21T06:21:51;24.10;99.90
13835;DHT22;6988;52.614;13.500;2022-07-21T06:26:43;24.10;99.90
13835;DHT22;6988;52.614;13.500;2022-07-21T06:31:36;24.20;99.90
13835;DHT22;6988;52.614;13.500;2022-07-21T06:36:29;24.20;99.90
13835;DHT22;6988;52.614;13.500;2022-07-21T06:41:21;24.40;99.90
13835;DHT22;6988;52.614;13.500;2022-07-21T06:46:13;24.70;99.90
13835;DHT22;6988;52.614;13.500;2022-07-21T06:51:05;25.00;99.90
13835;DHT22;6988;52.614;13.500;2022-07-21T06:55:58;25.20;99.90
13835;DHT22;6988;52.614;13.500;2022-07-21T07:00:51;25.30;99.90
13835;DHT22;6988;52.614;13.500;2022-07-21T07:05:44;25.50;99.90
13835;DHT22;6988;52.614;13.500;2022-07-21T07:10:37;25.60;99.90
13835;DHT22;6988;52.614;13.500;2022-07-21T07:15:30;25.80;99.90
13835;DHT22;6988;52.614;13.500;2022-07-21T07:20:22;25.80;99.90
13835;DHT22;6988;52.614;13.500;2022-07-21T07:25:14;25.80;99.90
13835;DHT22;6988;52.614;13.500;2022-07-21T07:30:08;26.30;99.90
13835;DHT22;6988;52.614;13.500;2022-07-21T07:35:03;26.70;99.90
13835;DHT22;6988;52.614;13.500;2022-07-21T07:39:55;26.90;99.90
13835;DHT22;6988;52.614;13.500;2022-07-21T07:44:47;27.20;99.90
13835;DHT22;6988;52.614;13.500;2022-07-21T07:49:38;27.30;99.90
13835;DHT22;6988;52.614;13.500;2022-07-21T07:54:32;27.50;99.90
13835;DHT22;6988;52.614;13.500;2022-07-21T07:59:23;27.60;99.90
13835;DHT22;6988;52.614;13.500;2022-07-21T08:04:15;27.70;99.90
13835;DHT22;6988;52.614;13.500;2022-07-21T08:09:07;27.70;99.90
13835;DHT22;6988;52.614;13.500;2022-07-21T08:14:01;28.00;99.90
13835;DHT22;6988;52.614;13.500;2022-07-21T08:18:52;28.50;99.90
13835;DHT22;6988;52.614;13.500;2022-07-21T08:23:44;28.70;99.90
13835;DHT22;6988;52.614;13.500;2022-07-21T08:28:36;28.10;99.90
13835;DHT22;6988;52.614;13.500;2022-07-21T08:33:29;27.90;99.90
13835;DHT22;6988;52.614;13.500;2022-07-21T08:38:20;27.80;99.90
13835;DHT22;6988;52.614;13.500;2022-07-21T08:43:13;27.90;99.90
13835;DHT22;6988;52.614;13.500;2022-07-21T08:48:06;28.30;99.90
13835;DHT22;6988;52.614;13.500;2022-07-21T08:53:00;28.30;99.90
13835;DHT22;6988;52.614;13.500;2022-07-21T08:57:52;28.10;99.90
13835;DHT22;6988;52.614;13.500;2022-07-21T09:02:44;28.10;99.90
13835;DHT22;6988;52.614;13.500;2022-07-21T09:07:49;28.10;99.90
13835;DHT22;6988;52.614;13.500;2022-07-21T09:12:50;28.20;99.90
13835;DHT22;6988;52.614;13.500;2022-07-21T09:17:43;28.20;99.90
13835;DHT22;6988;52.614;13.500;2022-07-21T09:22:35;28.70;99.90
13835;DHT22;6988;52.614;13.500;2022-07-21T09:27:27;29.10;99.90
13835;DHT22;6988;52.614;13.500;2022-07-21T09:32:23;29.10;99.90
13835;DHT22;6988;52.614;13.500;2022-07-21T09:37:16;28.90;99.90
13835;DHT22;6988;52.614;13.500;2022-07-21T09:42:16;29.00;99.90
13835;DHT22;6988;52.614;13.500;2022-07-21T09:47:11;29.10;99.90
13835;DHT22;6988;52.614;13.500;2022-07-21T09:52:17;29.30;99.90
13835;DHT22;6988;52.614;13.500;2022-07-21T09:57:11;29.40;99.90
13835;DHT22;6988;52.614;13.500;2022-07-21T10:02:03;29.50;99.90
13835;DHT22;6988;52.614;13.500;2022-07-21T10:06:54;29.40;99.90
13835;DHT22;6988;52.614;13.500;2022-07-21T10:11:48;29.40;99.90
13835;DHT22;6988;52.614;13.500;2022-07-21T10:16:40;29.30;99.90
13835;DHT22;6988;52.614;13.500;2022-07-21T10:21:43;29.40;99.90
13835;DHT22;6988;52.614;13.500;2022-07-21T10:27:03;29.60;99.90
13835;DHT22;6988;52.614;13.500;2022-07-21T10:32:09;29.60;99.80
13835;DHT22;6988;52.614;13.500;2022-07-21T10:37:01;29.30;99.90
13835;DHT22;6988;52.614;13.500;2022-07-21T10:41:55;29.30;99.90
13835;DHT22;6988;52.614;13.500;2022-07-21T10:46:59;29.30;99.90
13835;DHT22;6988;52.614;13.500;2022-07-21T10:51:54;29.60;99.90
13835;DHT22;6988;52.614;13.500;2022-07-21T10:56:46;29.70;99.40
13835;DHT22;6988;52.614;13.500;2022-07-21T11:01:38;29.60;99.50
13835;DHT22;6988;52.614;13.500;2022-07-21T11:06:32;29.40;99.00
13835;DHT22;6988;52.614;13.500;2022-07-21T11:11:25;29.50;99.60
13835;DHT22;6988;52.614;13.500;2022-07-21T11:16:18;29.50;99.60
13835;DHT22;6988;52.614;13.500;2022-07-21T11:21:11;29.50;99.40
13835;DHT22;6988;52.614;13.500;2022-07-21T11:26:06;29.50;99.80
13835;DHT22;6988;52.614;13.500;2022-07-21T11:31:16;29.50;99.90
13835;DHT22;6988;52.614;13.500;2022-07-21T11:36:22;29.50;99.40
13835;DHT22;6988;52.614;13.500;2022-07-21T11:41:20;29.50;99.50
13835;DHT22;6988;52.614;13.500;2022-07-21T11:46:11;29.50;99.90
13835;DHT22;6988;52.614;13.500;2022-07-21T11:51:04;29.50;99.30
13835;DHT22;6988;52.614;13.500;2022-07-21T11:55:57;29.70;99.50
13835;DHT22;6988;52.614;13.500;2022-07-21T12:01:03;29.70;99.10
13835;DHT22;6988;52.614;13.500;2022-07-21T12:05:56;29.60;99.40
13835;DHT22;6988;52.614;13.500;2022-07-21T12:10:48;29.30;99.30
13835;DHT22;6988;52.614;13.500;2022-07-21T12:15:40;29.30;99.70
13835;DHT22;6988;52.614;13.500;2022-07-21T12:20:35;29.10;99.80
13835;DHT22;6988;52.614;13.500;2022-07-21T12:25:31;29.00;99.90
13835;DHT22;6988;52.614;13.500;2022-07-21T12:30:33;29.00;99.90
13835;DHT22;6988;52.614;13.500;2022-07-21T12:35:27;28.80;99.90
13835;DHT22;6988;52.614;13.500;2022-07-21T12:40:20;28.70;99.90
13835;DHT22;6988;52.614;13.500;2022-07-21T12:45:14;28.60;99.90
13835;DHT22;6988;52.614;13.500;2022-07-21T12:50:14;28.30;99.90
13835;DHT22;6988;52.614;13.500;2022-07-21T12:55:07;28.00;99.90
13835;DHT22;6988;52.614;13.500;2022-07-21T13:00:01;27.90;99.90
13835;DHT22;6988;52.614;13.500;2022-07-21T13:04:55;27.80;99.90
13835;DHT22;6988;52.614;13.500;2022-07-21T13:09:46;27.80;99.90
13835;DHT22;6988;52.614;13.500;2022-07-21T13:14:38;27.80;99.90
13835;DHT22;6988;52.614;13.500;2022-07-21T13:19:31;27.70;99.90
13835;DHT22;6988;52.614;13.500;2022-07-21T13:24:26;27.50;99.90
13835;DHT22;6988;52.614;13.500;2022-07-21T13:29:18;27.50;99.90
13835;DHT22;6988;52.614;13.500;2022-07-21T13:34:09;27.20;99.90
13835;DHT22;6988;52.614;13.500;2022-07-21T13:39:03;27.00;99.90
13835;DHT22;6988;52.614;13.500;2022-07-21T13:43:56;26.80;99.90
13835;DHT22;6988;52.614;13.500;2022-07-21T13:48:48;26.70;99.90
13835;DHT22;6988;52.614;13.500;2022-07-21T13:53:41;26.30;99.90
13835;DHT22;6988;52.614;13.500;2022-07-21T13:58:37;26.00;99.90
13835;DHT22;6988;52.614;13.500;2022-07-21T14:03:29;25.80;99.90
13835;DHT22;6988;52.614;13.500;2022-07-21T14:08:21;25.90;99.90
13835;DHT22;6988;52.614;13.500;2022-07-21T14:13:13;25.80;99.90
13835;DHT22;6988;52.614;13.500;2022-07-21T14:18:06;25.60;99.90
13835;DHT22;6988;52.614;13.500;2022-07-21T14:22:58;25.50;99.90
13835;DHT22;6988;52.614;13.500;2022-07-21T14:27:52;25.30;99.90
13835;DHT22;6988;52.614;13.500;2022-07-21T14:32:46;25.40;99.90
13835;DHT22;6988;52.614;13.500;2022-07-21T14:37:40;25.50;99.90
13835;DHT22;6988;52.614;13.500;2022-07-21T14:42:32;25.50;99.90
13835;DHT22;6988;52.614;13.500;2022-07-21T14:47:23;25.70;99.90
13835;DHT22;6988;52.614;13.500;2022-07-21T14:52:15;26.00;99.90
13835;DHT22;6988;52.614;13.500;2022-07-21T14:57:08;26.30;99.90
13835;DHT22;6988;52.614;13.500;2022-07-21T15:02:00;26.20;99.90
13835;DHT22;6988;52.614;13.500;2022-07-21T15:06:52;26.20;99.90
13835;DHT22;6988;52.614;13.500;2022-07-21T15:11:43;26.60;99.90
13835;DHT22;6988;52.614;13.500;2022-07-21T15:16:37;27.10;99.90
13835;DHT22;6988;52.614;13.500;2022-07-21T15:21:29;27.30;99.90
13835;DHT22;6988;52.614;13.500;2022-07-21T15:26:20;27.00;99.90
13835;DHT22;6988;52.614;13.500;2022-07-21T15:31:12;26.70;99.90
13835;DHT22;6988;52.614;13.500;2022-07-21T15:36:06;26.50;99.90
13835;DHT22;6988;52.614;13.500;2022-07-21T15:40:58;26.20;99.90
13835;DHT22;6988;52.614;13.500;2022-07-21T15:45:50;26.10;99.90
13835;DHT22;6988;52.614;13.500;2022-07-21T15:50:42;26.20;99.90
13835;DHT22;6988;52.614;13.500;2022-07-21T15:55:36;26.60;99.90
13835;DHT22;6988;52.614;13.500;2022-07-21T16:00:28;26.90;99.90
13835;DHT22;6988;52.614;13.500;2022-07-21T16:05:25;26.70;99.90
13835;DHT22;6988;52.614;13.500;2022-07-21T16:10:18;26.60;99.90
13835;DHT22;6988;52.614;13.500;2022-07-21T16:15:13;26.30;99.90
13835;DHT22;6988;52.614;13.500;2022-07-21T16:20:06;26.10;99.90
13835;DHT22;6988;52.614;13.500;2022-07-21T16:24:59;26.00;99.90
13835;DHT22;6988;52.614;13.500;2022-07-21T16:29:51;26.00;99.90
13835;DHT22;6988;52.614;13.500;2022-07-21T16:34:44;26.00;99.90
13835;DHT22;6988;52.614;13.500;2022-07-21T16:39:36;26.00;99.90
13835;DHT22;6988;52.614;13.500;2022-07-21T16:44:29;25.90;99.90
13835;DHT22;6988;52.614;13.500;2022-07-21T16:49:20;25.90;99.90
13835;DHT22;6988;52.614;13.500;2022-07-21T16:54:14;25.80;99.90
13835;DHT22;6988;52.614;13.500;2022-07-21T16:59:06;25.80;99.90
13835;DHT22;6988;52.614;13.500;2022-07-21T17:03:58;25.90;99.90
13835;DHT22;6988;52.614;13.500;2022-07-21T17:08:50;26.00;99.90
13835;DHT22;6988;52.614;13.500;2022-07-21T17:13:43;26.00;99.90
13835;DHT22;6988;52.614;13.500;2022-07-21T17:18:35;26.00;99.90
13835;DHT22;6988;52.614;13.500;2022-07-21T17:23:26;26.00;99.90
13835;DHT22;6988;52.614;13.500;2022-07-21T17:28:18;26.00;99.90
13835;DHT22;6988;52.614;13.500;2022-07-21T17:33:11;25.90;99.90
13835;DHT22;6988;52.614;13.500;2022-07-21T17:38:03;25.70;99.90
13835;DHT22;6988;52.614;13.500;2022-07-21T17:42:56;25.60;99.90
13835;DHT22;6988;52.614;13.500;2022-07-21T17:47:47;25.50;99.90
13835;DHT22;6988;52.614;13.500;2022-07-21T17:52:43;25.40;99.90
13835;DHT22;6988;52.614;13.500;2022-07-21T17:57:35;25.30;99.90
13835;DHT22;6988;52.614;13.500;2022-07-21T18:02:45;25.30;99.90
13835;DHT22;6988;52.614;13.500;2022-07-21T18:07:37;25.20;99.90
13835;DHT22;6988;52.614;13.500;2022-07-21T18:12:30;25.10;99.90
13835;DHT22;6988;52.614;13.500;2022-07-21T18:17:22;25.10;99.90
13835;DHT22;6988;52.614;13.500;2022-07-21T18:22:14;25.00;99.90
13835;DHT22;6988;52.614;13.500;2022-07-21T18:27:06;24.90;99.90
13835;DHT22;6988;52.614;13.500;2022-07-21T18:31:59;24.90;99.90
13835;DHT22;6988;52.614;13.500;2022-07-21T18:36:51;24.80;99.90
13835;DHT22;6988;52.614;13.500;2022-07-21T18:41:43;24.80;99.90
13835;DHT22;6988;52.614;13.500;2022-07-21T18:46:34;24.70;99.90
13835;DHT22;6988;52.614;13.500;2022-07-21T18:51:27;24.60;99.90
13835;DHT22;6988;52.614;13.500;2022-07-21T18:56:20;24.60;99.90
13835;DHT22;6988;52.614;13.500;2022-07-21T19:01:13;24.50;99.90
13835;DHT22;6988;52.614;13.500;2022-07-21T19:06:05;24.50;99.90
13835;DHT22;6988;52.614;13.500;2022-07-21T19:10:59;24.40;99.90
13835;DHT22;6988;52.614;13.500;2022-07-21T19:15:51;24.40;99.90
13835;DHT22;6988;52.614;13.500;2022-07-21T19:20:43;24.20;99.90
13835;DHT22;6988;52.614;13.500;2022-07-21T19:25:35;24.10;99.90
13835;DHT22;6988;52.614;13.500;2022-07-21T19:30:28;24.00;99.90
13835;DHT22;6988;52.614;13.500;2022-07-21T19:35:20;23.80;99.90
13835;DHT22;6988;52.614;13.500;2022-07-21T19:40:15;23.80;99.90
13835;DHT22;6988;52.614;13.500;2022-07-21T19:45:08;23.60;99.90
13835;DHT22;6988;52.614;13.500;2022-07-21T19:50:02;23.30;99.90
13835;DHT22;6988;52.614;13.500;2022-07-21T19:54:55;23.10;99.90
13835;DHT22;6988;52.614;13.500;2022-07-21T19:59:47;23.10;99.90
13835;DHT22;6988;52.614;13.500;2022-07-21T20:04:38;23.00;99.90
13835;DHT22;6988;52.614;13.500;2022-07-21T20:09:31;23.00;99.90
13835;DHT22;6988;52.614;13.500;2022-07-21T20:14:23;23.00;99.90
13835;DHT22;6988;52.614;13.500;2022-07-21T20:19:15;22.90;99.90
13835;DHT22;6988;52.614;13.500;2022-07-21T20:24:07;22.70;99.90
13835;DHT22;6988;52.614;13.500;2022-07-21T20:29:00;22.60;99.90
13835;DHT22;6988;52.614;13.500;2022-07-21T20:33:52;22.50;99.90
13835;DHT22;6988;52.614;13.500;2022-07-21T20:38:44;22.30;99.90
13835;DHT22;6988;52.614;13.500;2022-07-21T20:43:36;22.10;99.90
13835;DHT22;6988;52.614;13.500;2022-07-21T20:48:29;22.00;99.90
13835;DHT22;6988;52.614;13.500;2022-07-21T20:53:20;21.90;99.90
13835;DHT22;6988;52.614;13.500;2022-07-21T20:58:12;21.80;99.90
13835;DHT22;6988;52.614;13.500;2022-07-21T21:03:04;21.70;99.90
13835;DHT22;6988;52.614;13.500;2022-07-21T21:07:57;21.60;99.90
13835;DHT22;6988;52.614;13.500;2022-07-21T21:12:48;21.60;99.90
13835;DHT22;6988;52.614;13.500;2022-07-21T21:17:40;21.50;99.90
13835;DHT22;6988;52.614;13.500;2022-07-21T21:22:32;21.50;99.90
13835;DHT22;6988;52.614;13.500;2022-07-21T21:27:25;21.50;99.90
13835;DHT22;6988;52.614;13.500;2022-07-21T21:32:17;21.50;99.90
13835;DHT22;6988;52.614;13.500;2022-07-21T21:37:09;21.50;99.90
13835;DHT22;6988;52.614;13.500;2022-07-21T21:42:01;21.40;99.90
13835;DHT22;6988;52.614;13.500;2022-07-21T21:46:56;21.50;99.90
13835;DHT22;6988;52.614;13.500;2022-07-21T21:51:47;21.50;99.90
13835;DHT22;6988;52.614;13.500;2022-07-21T21:56:39;21.50;99.90
13835;DHT22;6988;52.614;13.500;2022-07-21T22:01:31;21.50;99.90
13835;DHT22;6988;52.614;13.500;2022-07-21T22:06:25;21.50;99.90
13835;DHT22;6988;52.614;13.500;2022-07-21T22:11:16;21.60;99.90
13835;DHT22;6988;52.614;13.500;2022-07-21T22:16:08;21.60;99.90
13835;DHT22;6988;52.614;13.500;2022-07-21T22:21:00;21.40;99.90
13835;DHT22;6988;52.614;13.500;2022-07-21T22:25:53;21.30;99.90
13835;DHT22;6988;52.614;13.500;2022-07-21T22:30:46;21.30;99.90
13835;DHT22;6988;52.614;13.500;2022-07-21T22:35:37;21.20;99.90
13835;DHT22;6988;52.614;13.500;2022-07-21T22:40:29;21.20;99.90
13835;DHT22;6988;52.614;13.500;2022-07-21T22:45:23;21.20;99.90
13835;DHT22;6988;52.614;13.500;2022-07-21T22:50:24;21.20;99.90
13835;DHT22;6988;52.614;13.500;2022-07-21T22:55:15;21.10;99.90
13835;DHT22;6988;52.614;13.500;2022-07-21T23:00:08;21.10;99.90
13835;DHT22;6988;52.614;13.500;2022-07-21T23:05:03;21.10;99.90
13835;DHT22;6988;52.614;13.500;2022-07-21T23:09:55;21.10;99.90
13835;DHT22;6988;52.614;13.500;2022-07-21T23:14:47;21.10;99.90
13835;DHT22;6988;52.614;13.500;2022-07-21T23:19:38;21.10;99.90
13835;DHT22;6988;52.614;13.500;2022-07-21T23:24:31;21.10;99.90
13835;DHT22;6988;52.614;13.500;2022-07-21T23:29:23;21.10;99.90
13835;DHT22;6988;52.614;13.500;2022-07-21T23:34:15;21.10;99.90
13835;DHT22;6988;52.614;13.500;2022-07-21T23:39:07;21.10;99.90
13835;DHT22;6988;52.614;13.500;2022-07-21T23:44:00;21.10;99.90
13835;DHT22;6988;52.614;13.500;2022-07-21T23:48:51;21.00;99.90
13835;DHT22;6988;52.614;13.500;2022-07-21T23:53:43;21.00;99.90
13835;DHT22;6988;52.614;13.500;2022-07-21T23:58:35;21.00;99.90
